Time;durP1;ratioP1;P1;durP2;ratioP2;P2;SDS_P1;SDS_P2;PMS_P1;PMS_P2;Temp;Humidity;BMP_temperature;BMP_pressure;BME280_temperature;BME280_humidity;BME280_pressure;Samples;Min_cycle;Max_cycle;Signal;HPM_P1;HPM_P2
2022/12/27 00:00:58;;;;;;;;;;;;;;;6.38;67.62;101362.28;5080076;28;19912;-62
2022/12/27 00:03:24;;;;;;;;;;;;;;;6.38;67.17;101356.16;5086781;28;19932;-58
2022/12/27 00:05:49;;;;;;;;;;;;;;;6.34;67.33;101354.56;5088112;28;19924;-62
2022/12/27 00:08:14;;;;;;;;;;;;;;;6.37;67.18;101350.09;5089261;28;19924;-56
2022/12/27 00:10:40;;;;;;;;;;;;;;;6.30;67.20;101353.78;5086912;28;19920;-58
2022/12/27 00:13:05;;;;;;;;;;;;;;;6.30;66.64;101348.56;5080116;28;19969;-57
2022/12/27 00:15:32;;;;;;;;;;;;;;;6.25;67.03;101359.16;5069330;28;20458;-57
2022/12/27 00:17:57;;;;;;;;;;;;;;;6.20;66.41;101362.81;5079819;28;19927;-57
2022/12/27 00:20:23;;;;;;;;;;;;;;;6.28;66.53;101352.13;5091546;28;19916;-64
2022/12/27 00:22:48;;;;;;;;;;;;;;;6.30;66.41;101356.41;5085500;28;19920;-59
2022/12/27 00:25:13;;;;;;;;;;;;;;;6.28;66.22;101349.53;5091693;28;20346;-57
2022/12/27 00:27:39;;;;;;;;;;;;;;;6.08;66.40;101364.88;5085262;28;20430;-60
2022/12/27 00:30:05;;;;;;;;;;;;;;;6.05;66.51;101364.97;5083063;28;19926;-61
2022/12/27 00:32:30;;;;;;;;;;;;;;;6.13;66.87;101350.81;5081168;28;19932;-58
2022/12/27 00:34:55;;;;;;;;;;;;;;;6.11;66.79;101363.94;5086911;28;20363;-59
2022/12/27 00:37:20;;;;;;;;;;;;;;;5.91;66.44;101356.63;5068485;28;21099;-60
2022/12/27 00:39:46;;;;;;;;;;;;;;;5.93;66.69;101365.28;5085719;28;19951;-60
2022/12/27 00:42:11;;;;;;;;;;;;;;;5.90;66.87;101352.31;5086160;28;19924;-57
2022/12/27 00:44:36;;;;;;;;;;;;;;;5.91;67.04;101360.09;5088339;28;19924;-61
2022/12/27 00:47:02;;;;;;;;;;;;;;;5.94;66.69;101361.78;5085796;28;19924;-57
2022/12/27 00:49:27;;;;;;;;;;;;;;;5.94;66.69;101385.28;5085939;28;19931;-61
2022/12/27 00:51:52;;;;;;;;;;;;;;;5.88;66.30;101367.16;5083101;28;20030;-56
2022/12/27 00:54:18;;;;;;;;;;;;;;;5.77;66.70;101372.69;5064323;28;19927;-58
2022/12/27 00:56:43;;;;;;;;;;;;;;;5.79;66.92;101379.59;5070285;28;19920;-61
2022/12/27 00:59:09;;;;;;;;;;;;;;;5.80;66.86;101376.09;5087335;28;19924;-57
2022/12/27 01:01:35;;;;;;;;;;;;;;;5.80;66.59;101381.31;5086836;28;19955;-60
2022/12/27 01:04:01;;;;;;;;;;;;;;;5.77;66.90;101386.63;5084426;28;19957;-58
2022/12/27 01:06:27;;;;;;;;;;;;;;;5.74;66.92;101381.47;5082779;28;19922;-61
2022/12/27 01:08:53;;;;;;;;;;;;;;;5.67;66.68;101394.72;5084624;28;20368;-58
2022/12/27 01:11:19;;;;;;;;;;;;;;;5.70;66.78;101394.66;5086562;28;19921;-58
2022/12/27 01:13:44;;;;;;;;;;;;;;;5.65;67.06;101398.25;5085428;28;19920;-59
2022/12/27 01:16:12;;;;;;;;;;;;;;;5.71;67.00;101423.34;5082259;28;19924;-62
2022/12/27 01:18:37;;;;;;;;;;;;;;;5.63;66.61;101402.63;5069083;28;19963;-56
2022/12/27 01:21:09;;;;;;;;;;;;;;;5.58;67.21;101406.28;5087426;28;19963;-56
2022/12/27 01:23:35;;;;;;;;;;;;;;;5.58;67.22;101414.09;5082096;28;19916;-56
2022/12/27 01:26:01;;;;;;;;;;;;;;;5.62;66.85;101413.13;5089116;28;19916;-56
2022/12/27 01:28:27;;;;;;;;;;;;;;;5.55;67.01;101414.19;5078649;28;19924;-56
2022/12/27 01:30:52;;;;;;;;;;;;;;;5.58;67.14;101421.94;5083259;28;19927;-61
2022/12/27 01:33:17;;;;;;;;;;;;;;;5.60;67.01;101421.00;5075706;28;19990;-57
2022/12/27 01:35:43;;;;;;;;;;;;;;;5.58;66.71;101428.03;5086438;28;19920;-57
2022/12/27 01:38:08;;;;;;;;;;;;;;;5.53;66.99;101431.63;5085619;28;19920;-58
2022/12/27 01:40:35;;;;;;;;;;;;;;;5.46;67.29;101429.19;5085986;28;19920;-58
2022/12/27 01:43:00;;;;;;;;;;;;;;;5.42;67.18;101432.78;5079712;28;19930;-56
2022/12/27 01:45:32;;;;;;;;;;;;;;;5.47;67.24;101436.13;5084235;28;20019;-56
2022/12/27 01:48:00;;;;;;;;;;;;;;;5.44;67.61;101430.97;5081109;28;19929;-62
2022/12/27 01:50:43;;;;;;;;;;;;;;;5.39;67.70;101442.44;5086624;28;19985;-58
2022/12/27 01:53:15;;;;;;;;;;;;;;;5.36;67.54;101438.16;5083874;28;19967;-60
2022/12/27 01:55:40;;;;;;;;;;;;;;;5.25;68.16;101448.84;5085782;28;19931;-56
2022/12/27 01:58:12;;;;;;;;;;;;;;;5.13;68.31;101452.59;5079669;28;19924;-56
2022/12/27 02:00:39;;;;;;;;;;;;;;;5.11;68.93;101459.59;5080808;28;19946;-62
2022/12/27 02:03:05;;;;;;;;;;;;;;;5.21;68.46;101460.25;5084866;28;19938;-60
2022/12/27 02:05:31;;;;;;;;;;;;;;;5.17;68.69;101458.59;5061723;28;19916;-57
2022/12/27 02:08:15;;;;;;;;;;;;;;;5.13;68.95;101462.19;5087457;28;20014;-56
2022/12/27 02:10:41;;;;;;;;;;;;;;;5.09;68.69;101478.81;5081455;28;19920;-56
2022/12/27 02:13:06;;;;;;;;;;;;;;;5.17;68.69;101475.13;5081125;28;20365;-61
2022/12/27 02:15:32;;;;;;;;;;;;;;;5.27;68.24;101473.16;5085065;28;20008;-64
2022/12/27 02:17:57;;;;;;;;;;;;;;;5.30;68.34;101475.69;5070506;28;19920;-56
2022/12/27 02:20:23;;;;;;;;;;;;;;;5.35;67.85;101478.19;5084733;28;19920;-56
2022/12/27 02:26:01;;;;;;;;;;;;;;;5.18;68.40;101481.19;5084581;28;19927;-59
2022/12/27 02:28:39;;;;;;;;;;;;;;;5.08;68.43;101490.97;5084983;28;19981;-58
2022/12/27 02:31:08;;;;;;;;;;;;;;;5.11;68.29;101484.84;5083829;28;19946;-62
2022/12/27 02:33:36;;;;;;;;;;;;;;;5.15;68.65;101481.25;5081658;28;20271;-57
2022/12/27 02:36:04;;;;;;;;;;;;;;;5.09;68.57;101487.47;5083879;28;19930;-57
2022/12/27 02:38:31;;;;;;;;;;;;;;;5.03;68.94;101485.03;5082829;28;19930;-58
2022/12/27 02:55:34;;;;;;;;;;;;;;;4.92;68.78;101500.03;5084863;28;19923;-56
2022/12/27 02:58:00;;;;;;;;;;;;;;;4.95;68.65;101505.19;5082425;28;19920;-60
2022/12/27 03:03:27;;;;;;;;;;;;;;;4.94;68.56;101522.59;5086998;28;19927;-60
2022/12/27 03:06:38;;;;;;;;;;;;;;;4.88;68.85;101517.50;5080310;28;19924;-56
2022/12/27 03:08:43;;;;;;;;;;;;;;;4.83;69.03;101517.63;5080508;28;20010;-58
2022/12/27 03:17:07;;;;;;;;;;;;;;;4.67;69.39;101531.84;5078315;28;19931;-61
2022/12/27 03:33:24;;;;;;;;;;;;;;;4.42;70.35;101543.63;5085876;28;19923;-60
2022/12/27 03:38:48;;;;;;;;;;;;;;;4.55;70.37;101544.25;5083660;28;19922;-58
2022/12/27 03:44:23;;;;;;;;;;;;;;;4.61;70.42;101547.63;5085129;28;19938;-61
2022/12/27 03:46:52;;;;;;;;;;;;;;;4.71;70.01;101549.16;5084442;28;20299;-60
2022/12/27 03:49:23;;;;;;;;;;;;;;;4.77;69.85;101554.22;5086986;28;19920;-62
2022/12/27 03:51:48;;;;;;;;;;;;;;;4.75;69.50;101550.81;5084429;28;19922;-61
2022/12/27 03:54:25;;;;;;;;;;;;;;;4.48;70.59;101550.47;5087441;28;19916;-62
2022/12/27 03:56:51;;;;;;;;;;;;;;;4.31;70.82;101561.22;5084697;28;19966;-62
2022/12/27 03:59:16;;;;;;;;;;;;;;;4.37;70.46;101565.44;5081489;28;20426;-59
2022/12/27 04:01:42;;;;;;;;;;;;;;;4.38;70.50;101562.84;5086085;28;19924;-62
2022/12/27 04:04:07;;;;;;;;;;;;;;;4.29;70.93;101549.97;5071667;28;19924;-60
2022/12/27 04:06:32;;;;;;;;;;;;;;;4.29;71.01;101549.09;5086108;28;19916;-59
2022/12/27 04:36:17;;;;;;;;;;;;;;;4.20;70.84;101547.53;5089773;28;19966;-59
2022/12/27 04:38:42;;;;;;;;;;;;;;;4.18;70.89;101554.50;5072859;28;19966;-61
2022/12/27 04:55:22;;;;;;;;;;;;;;;4.01;71.56;101544.41;5084779;28;20027;-62
2022/12/27 04:57:47;;;;;;;;;;;;;;;3.96;71.37;101545.34;5080545;28;19931;-60
2022/12/27 05:02:59;;;;;;;;;;;;;;;3.93;71.73;101562.75;5083643;28;19943;-62
2022/12/27 05:05:24;;;;;;;;;;;;;;;3.90;71.86;101555.00;5087290;28;19919;-61
2022/12/27 05:16:02;;;;;;;;;;;;;;;3.78;72.40;101556.03;5083034;28;20003;-60
2022/12/27 05:18:27;;;;;;;;;;;;;;;3.78;72.40;101572.50;5082568;28;19943;-59
2022/12/27 05:20:52;;;;;;;;;;;;;;;3.82;71.98;101562.94;5081865;28;19920;-60
2022/12/27 05:26:02;;;;;;;;;;;;;;;3.69;72.73;101566.63;5082438;28;20386;-60
2022/12/27 05:28:27;;;;;;;;;;;;;;;3.69;72.80;101569.22;5087887;28;19920;-59
2022/12/27 05:30:53;;;;;;;;;;;;;;;3.64;72.85;101564.06;5082055;28;19928;-60
2022/12/27 05:33:18;;;;;;;;;;;;;;;3.71;72.42;101567.44;5085364;28;19927;-61
2022/12/27 05:35:43;;;;;;;;;;;;;;;3.71;72.27;101581.31;5085991;28;19969;-59
2022/12/27 05:38:09;;;;;;;;;;;;;;;3.70;72.49;101570.94;5089099;28;19912;-60
2022/12/27 05:40:34;;;;;;;;;;;;;;;3.79;72.41;101574.22;5082702;28;19916;-60
2022/12/27 05:43:01;;;;;;;;;;;;;;;3.80;72.31;101575.09;5089809;28;19912;-59
2022/12/27 05:45:27;;;;;;;;;;;;;;;3.83;71.93;101585.47;5083217;28;20373;-58
2022/12/27 05:47:53;;;;;;;;;;;;;;;3.85;72.25;101572.44;5086735;28;20386;-61
2022/12/27 05:50:18;;;;;;;;;;;;;;;3.92;71.91;101574.91;5081668;28;19952;-62
2022/12/27 05:52:44;;;;;;;;;;;;;;;3.94;71.79;101562.72;5086078;28;19920;-60
2022/12/27 05:55:09;;;;;;;;;;;;;;;3.94;71.49;101575.75;5085972;28;19916;-61
2022/12/27 05:57:35;;;;;;;;;;;;;;;3.92;71.87;101572.31;5085250;28;19924;-60
2022/12/27 06:00:00;;;;;;;;;;;;;;;3.87;71.87;101587.13;5083224;28;19923;-61
2022/12/27 06:02:25;;;;;;;;;;;;;;;3.88;71.72;101583.66;5080581;28;19920;-62
2022/12/27 06:04:51;;;;;;;;;;;;;;;3.88;71.80;101572.38;5084542;28;20432;-60
2022/12/27 06:07:16;;;;;;;;;;;;;;;3.89;71.69;101574.94;5086543;28;20014;-61
2022/12/27 06:09:41;;;;;;;;;;;;;;;3.87;71.43;101574.09;5083925;28;19935;-61
2022/12/27 06:12:07;;;;;;;;;;;;;;;3.89;71.59;101582.75;5066655;28;20363;-60
2022/12/27 06:14:32;;;;;;;;;;;;;;;3.86;71.71;101577.59;5084710;28;19920;-59
2022/12/27 06:16:57;;;;;;;;;;;;;;;3.78;71.79;101582.09;5085470;28;20423;-58
2022/12/27 06:19:23;;;;;;;;;;;;;;;3.81;71.84;101587.25;5079943;28;19920;-62
2022/12/27 06:21:48;;;;;;;;;;;;;;;3.87;71.53;101591.50;5084545;28;19927;-58
2022/12/27 06:24:14;;;;;;;;;;;;;;;3.87;71.86;101600.16;5068550;28;21690;-59
2022/12/27 06:26:41;;;;;;;;;;;;;;;3.85;71.59;101596.75;5084630;28;19981;-61
2022/12/27 06:29:06;;;;;;;;;;;;;;;3.88;71.81;101591.44;5083568;28;19939;-62
2022/12/27 06:31:31;;;;;;;;;;;;;;;3.91;71.39;101586.19;5083569;28;19916;-59
2022/12/27 06:33:57;;;;;;;;;;;;;;;3.90;71.66;101592.28;5087546;28;19928;-60
2022/12/27 06:36:26;;;;;;;;;;;;;;;3.79;71.77;101586.41;5083361;28;20291;-61
2022/12/27 06:38:51;;;;;;;;;;;;;;;3.82;71.62;101591.56;5078860;28;20287;-60
2022/12/27 06:41:17;;;;;;;;;;;;;;;3.85;71.57;101586.31;5084378;28;19916;-62
2022/12/27 06:43:43;;;;;;;;;;;;;;;3.82;71.51;101594.19;5086000;28;19920;-60
2022/12/27 06:46:09;;;;;;;;;;;;;;;3.83;71.49;101595.91;5086943;28;19924;-61
2022/12/27 06:48:35;;;;;;;;;;;;;;;3.82;71.69;101612.41;5086653;28;20398;-61
2022/12/27 06:51:04;;;;;;;;;;;;;;;3.78;71.67;101601.16;5083005;28;19924;-62
2022/12/27 06:53:29;;;;;;;;;;;;;;;3.77;71.91;101602.06;5079512;28;20444;-59
2022/12/27 06:55:54;;;;;;;;;;;;;;;3.77;71.97;101616.81;5087209;28;19928;-61
2022/12/27 06:58:20;;;;;;;;;;;;;;;3.70;72.03;101602.19;5085785;28;19947;-62
2022/12/27 07:00:45;;;;;;;;;;;;;;;3.66;72.21;101607.44;5079437;28;21088;-60
2022/12/27 07:03:10;;;;;;;;;;;;;;;3.65;72.41;101613.50;5084869;28;20368;-62
2022/12/27 07:05:36;;;;;;;;;;;;;;;3.67;72.27;101623.88;5086920;28;19916;-59
2022/12/27 07:08:02;;;;;;;;;;;;;;;3.63;72.35;101625.69;5081613;28;19938;-62
2022/12/27 07:10:27;;;;;;;;;;;;;;;3.55;72.54;101622.34;5084670;28;20389;-60
2022/12/27 07:12:53;;;;;;;;;;;;;;;3.62;72.47;101629.16;5084159;28;20368;-58
2022/12/27 07:15:18;;;;;;;;;;;;;;;3.62;72.40;101631.78;5084797;28;19920;-58
2022/12/27 07:17:43;;;;;;;;;;;;;;;3.63;72.67;101643.91;5081852;28;19920;-61
2022/12/27 07:20:09;;;;;;;;;;;;;;;3.62;72.67;101644.78;5084809;28;20290;-59
2022/12/27 07:22:34;;;;;;;;;;;;;;;3.57;72.59;101651.78;5081474;28;19924;-59
2022/12/27 07:25:00;;;;;;;;;;;;;;;3.53;73.03;101655.34;5084130;28;19924;-59
2022/12/27 07:27:25;;;;;;;;;;;;;;;3.53;73.04;101654.47;5087696;28;19917;-60
2022/12/27 07:29:50;;;;;;;;;;;;;;;3.52;73.35;101664.03;5088727;28;20490;-60
2022/12/27 07:32:16;;;;;;;;;;;;;;;3.60;72.94;101664.75;5081347;28;19925;-62
2022/12/27 07:34:41;;;;;;;;;;;;;;;3.66;73.12;101669.91;5087629;28;19994;-59
2022/12/27 07:37:07;;;;;;;;;;;;;;;3.70;73.10;101678.50;5086375;28;20387;-60
2022/12/27 07:39:32;;;;;;;;;;;;;;;3.77;72.96;101674.97;5088839;28;20375;-59
2022/12/27 07:41:57;;;;;;;;;;;;;;;3.86;72.81;101673.94;5083873;28;19928;-57
2022/12/27 07:44:23;;;;;;;;;;;;;;;3.94;72.70;101672.09;5087842;28;20326;-61
2022/12/27 07:46:48;;;;;;;;;;;;;;;3.96;72.43;101672.94;5085365;28;20466;-61
2022/12/27 07:49:14;;;;;;;;;;;;;;;3.98;72.43;101672.91;5090097;28;19924;-61
2022/12/27 07:51:39;;;;;;;;;;;;;;;3.95;72.31;101668.63;5086995;28;19932;-60
2022/12/27 07:54:04;;;;;;;;;;;;;;;4.03;72.14;101672.81;5090110;28;19931;-59
2022/12/27 07:56:30;;;;;;;;;;;;;;;4.06;72.05;101680.59;5087918;28;19962;-59
2022/12/27 07:58:56;;;;;;;;;;;;;;;4.07;72.17;101671.91;5084568;28;20074;-59
2022/12/27 08:01:22;;;;;;;;;;;;;;;4.02;71.92;101685.00;5087104;28;21054;-62
2022/12/27 08:03:48;;;;;;;;;;;;;;;3.99;72.09;101674.63;5087943;28;20018;-58
2022/12/27 08:06:23;;;;;;;;;;;;;;;4.01;72.38;101672.00;5088467;28;19916;-61
2022/12/27 08:08:50;;;;;;;;;;;;;;;4.08;72.38;101694.47;5090618;28;19951;-62
2022/12/27 08:11:15;;;;;;;;;;;;;;;4.16;71.97;101684.78;5085415;28;19924;-59
2022/12/27 08:13:41;;;;;;;;;;;;;;;4.24;72.09;101682.91;5090224;28;19931;-60
2022/12/27 08:16:06;;;;;;;;;;;;;;;4.30;71.92;101681.97;5088000;28;19928;-58
2022/12/27 08:18:31;;;;;;;;;;;;;;;4.39;71.58;101691.38;5085668;28;20345;-57
2022/12/27 08:20:57;;;;;;;;;;;;;;;4.38;71.57;101707.88;5089230;28;19976;-60
2022/12/27 08:23:22;;;;;;;;;;;;;;;4.40;71.71;101686.13;5080005;28;19916;-56
2022/12/27 08:25:47;;;;;;;;;;;;;;;4.48;71.30;101698.19;5088147;28;20295;-58
2022/12/27 08:28:14;;;;;;;;;;;;;;;4.54;71.07;101695.44;5086433;28;19920;-60
2022/12/27 08:30:40;;;;;;;;;;;;;;;4.54;70.99;101698.94;5082566;28;19922;-64
2022/12/27 08:33:06;;;;;;;;;;;;;;;4.55;71.08;101689.34;5083594;28;19920;-57
2022/12/27 08:35:31;;;;;;;;;;;;;;;4.46;71.34;101698.22;5086211;28;19918;-58
2022/12/27 08:38:00;;;;;;;;;;;;;;;4.52;70.92;101705.91;5078821;28;20006;-59
2022/12/27 08:40:25;;;;;;;;;;;;;;;4.58;71.12;101690.19;5089792;28;19920;-56
2022/12/27 08:42:50;;;;;;;;;;;;;;;4.57;70.82;101693.66;5069975;28;19990;-57
2022/12/27 08:45:21;;;;;;;;;;;;;;;4.56;71.14;101699.75;5087960;28;20007;-60
2022/12/27 08:47:47;;;;;;;;;;;;;;;4.55;71.07;101695.44;5088581;28;19920;-59
2022/12/27 08:50:12;;;;;;;;;;;;;;;4.51;71.64;101708.56;5086407;28;20453;-60
2022/12/27 08:52:37;;;;;;;;;;;;;;;4.52;71.13;101703.31;5087351;28;21219;-63
2022/12/27 08:55:03;;;;;;;;;;;;;;;4.45;71.35;101696.50;5084843;28;19931;-58
2022/12/27 08:57:28;;;;;;;;;;;;;;;4.45;71.62;101698.22;5057690;28;20027;-61
2022/12/27 08:59:54;;;;;;;;;;;;;;;4.51;71.38;101685.94;5090008;28;20300;-59
2022/12/27 09:02:19;;;;;;;;;;;;;;;4.52;71.45;101705.91;5080997;28;20015;-59
2022/12/27 09:04:45;;;;;;;;;;;;;;;4.52;71.47;101689.44;5088252;28;19916;-61
2022/12/27 09:07:11;;;;;;;;;;;;;;;4.49;71.91;101697.28;5086812;28;19962;-59
2022/12/27 09:09:36;;;;;;;;;;;;;;;4.54;71.91;101690.22;5066615;28;19932;-61
2022/12/27 09:12:02;;;;;;;;;;;;;;;4.57;71.90;101708.44;5079528;28;19916;-58
2022/12/27 09:14:27;;;;;;;;;;;;;;;4.55;71.91;101682.41;5088322;28;20354;-60
2022/12/27 09:16:52;;;;;;;;;;;;;;;4.54;71.80;101683.28;5085698;28;20343;-58
2022/12/27 09:19:17;;;;;;;;;;;;;;;4.50;71.66;101681.63;5086480;28;19924;-61
2022/12/27 09:21:43;;;;;;;;;;;;;;;4.54;71.61;101683.28;5081529;28;19920;-58
2022/12/27 09:24:12;;;;;;;;;;;;;;;4.58;71.92;101684.97;5083152;28;19954;-59
2022/12/27 09:26:38;;;;;;;;;;;;;;;4.62;71.55;101696.19;5076947;28;20279;-59
2022/12/27 09:29:04;;;;;;;;;;;;;;;4.67;71.60;101703.94;5063499;28;19916;-59
2022/12/27 09:31:29;;;;;;;;;;;;;;;4.73;71.71;101722.09;5078616;28;19924;-62
2022/12/27 09:33:55;;;;;;;;;;;;;;;4.84;71.16;101696.66;5083537;28;19928;-57
2022/12/27 09:36:21;;;;;;;;;;;;;;;4.94;70.72;101717.34;5082482;28;19924;-60
2022/12/27 09:38:47;;;;;;;;;;;;;;;5.05;70.42;101710.19;5077582;28;20569;-59
2022/12/27 09:41:17;;;;;;;;;;;;;;;5.04;70.65;101716.31;5074667;28;19977;-61
2022/12/27 09:43:58;;;;;;;;;;;;;;;5.11;70.17;101704.84;5071805;28;20012;-60
2022/12/27 09:46:26;;;;;;;;;;;;;;;5.11;70.44;101710.06;5087122;28;19922;-62
2022/12/27 09:48:53;;;;;;;;;;;;;;;5.09;70.35;101714.44;5087840;28;19920;-59
2022/12/27 09:51:39;;;;;;;;;;;;;;;5.10;69.91;101707.50;5084664;28;19924;-62
2022/12/27 09:54:14;;;;;;;;;;;;;;;5.12;70.35;101714.41;5081213;28;19927;-62
2022/12/27 09:56:40;;;;;;;;;;;;;;;5.16;70.22;101717.81;5089354;28;19912;-61
2022/12/27 09:59:15;;;;;;;;;;;;;;;5.13;69.97;101707.44;5066370;28;19923;-62
2022/12/27 10:01:41;;;;;;;;;;;;;;;5.13;69.68;101713.50;5087910;28;19919;-61
2022/12/27 10:04:16;;;;;;;;;;;;;;;5.17;69.99;101704.75;5088064;28;20454;-60
2022/12/27 10:06:41;;;;;;;;;;;;;;;5.26;69.38;101716.75;5060477;28;19959;-61
2022/12/27 10:09:18;;;;;;;;;;;;;;;5.33;69.38;101720.94;5059322;28;19963;-62
2022/12/27 10:11:57;;;;;;;;;;;;;;;5.40;68.51;101716.44;5070523;28;19931;-59
2022/12/27 10:14:25;;;;;;;;;;;;;;;5.52;68.96;101719.72;5088405;28;19926;-62
2022/12/27 10:17:06;;;;;;;;;;;;;;;5.53;68.58;101730.13;5082869;28;19969;-60
2022/12/27 10:19:48;;;;;;;;;;;;;;;5.57;68.62;101712.63;5065461;28;19932;-61
2022/12/27 10:22:32;;;;;;;;;;;;;;;5.68;68.17;101715.88;5086128;28;20010;-59
2022/12/27 10:24:59;;;;;;;;;;;;;;;5.77;68.33;101712.19;5084239;28;20375;-60
2022/12/27 10:27:26;;;;;;;;;;;;;;;5.80;67.97;101719.97;5083287;28;19916;-60
2022/12/27 10:29:52;;;;;;;;;;;;;;;5.80;68.29;101735.66;5082186;28;20752;-61
2022/12/27 10:32:18;;;;;;;;;;;;;;;5.70;67.99;101748.03;5085913;28;19920;-61
2022/12/27 10:34:43;;;;;;;;;;;;;;;5.73;68.60;101736.69;5085969;28;19927;-59
2022/12/27 10:37:13;;;;;;;;;;;;;;;5.78;67.88;101734.81;5080447;28;19920;-62
2022/12/27 10:39:39;;;;;;;;;;;;;;;5.77;67.93;101736.59;5082876;28;19931;-60
2022/12/27 10:42:22;;;;;;;;;;;;;;;5.79;68.28;101736.53;5088808;28;19916;-62
2022/12/27 10:44:47;;;;;;;;;;;;;;;5.80;68.03;101740.88;5081210;28;19977;-58
2022/12/27 10:47:14;;;;;;;;;;;;;;;5.78;67.47;101753.09;5088094;28;19924;-60
2022/12/27 10:49:41;;;;;;;;;;;;;;;5.83;67.58;101748.66;5088801;28;20057;-56
2022/12/27 10:52:27;;;;;;;;;;;;;;;5.78;67.56;101763.53;5085195;28;19920;-56
2022/12/27 10:54:53;;;;;;;;;;;;;;;5.74;67.83;101767.97;5079103;28;19924;-57
2022/12/27 10:57:27;;;;;;;;;;;;;;;5.81;67.52;101779.16;5077135;28;20018;-58
2022/12/27 11:00:12;;;;;;;;;;;;;;;5.82;67.64;101759.13;5095634;22;19923;-63
2022/12/27 11:02:47;;;;;;;;;;;;;;;5.86;68.04;101766.00;5099957;28;19920;-63
2022/12/27 11:05:18;;;;;;;;;;;;;;;5.87;67.91;101767.72;5099964;28;20011;-64
2022/12/27 11:07:44;;;;;;;;;;;;;;;5.97;67.52;101768.38;5103294;27;20644;-62
2022/12/27 11:10:17;;;;;;;;;;;;;;;5.98;67.28;101768.34;5093149;27;19935;-64
2022/12/27 11:12:56;;;;;;;;;;;;;;;5.99;67.23;101775.28;5081575;28;19924;-61
2022/12/27 11:15:23;;;;;;;;;;;;;;;5.95;67.11;101789.31;5098525;28;21117;-64
2022/12/27 11:17:54;;;;;;;;;;;;;;;5.95;67.05;101791.94;5100161;28;19920;-62
2022/12/27 11:20:19;;;;;;;;;;;;;;;6.04;66.79;101802.22;5097009;28;19927;-63
2022/12/27 11:22:47;;;;;;;;;;;;;;;6.12;66.40;101798.59;5078050;28;20374;-63
2022/12/27 11:25:15;;;;;;;;;;;;;;;6.06;66.69;101784.75;5093644;28;19932;-64
2022/12/27 11:27:48;;;;;;;;;;;;;;;6.10;66.45;101802.09;5099481;28;19964;-64
2022/12/27 11:30:31;;;;;;;;;;;;;;;6.02;66.64;101809.22;5097087;28;19935;-61
2022/12/27 11:33:05;;;;;;;;;;;;;;;6.10;66.44;101796.00;5094304;28;20059;-64
2022/12/27 11:35:32;;;;;;;;;;;;;;;6.08;66.19;101803.88;5089627;28;19916;-63
2022/12/27 11:38:00;;;;;;;;;;;;;;;6.08;65.99;101792.53;5084438;28;19963;-68
2022/12/27 11:40:29;;;;;;;;;;;;;;;6.13;65.89;101795.06;5104189;28;19920;-63
2022/12/27 11:43:09;;;;;;;;;;;;;;;6.22;65.46;101808.78;5094190;28;20283;-60
2022/12/27 11:45:41;;;;;;;;;;;;;;;6.28;65.19;101823.47;5085698;28;20457;-62
2022/12/27 11:48:28;;;;;;;;;;;;;;;6.18;65.04;101801.91;5102547;28;19926;-62
2022/12/27 11:51:19;;;;;;;;;;;;;;;6.13;65.30;101809.00;5100077;28;19919;-63
2022/12/27 11:54:04;;;;;;;;;;;;;;;6.10;65.45;101816.91;5099404;28;20298;-63
2022/12/27 11:56:37;;;;;;;;;;;;;;;6.02;65.25;101819.66;5087105;28;19924;-64
2022/12/27 11:59:03;;;;;;;;;;;;;;;6.05;65.48;101814.38;5093610;27;20381;-60
2022/12/27 12:01:31;;;;;;;;;;;;;;;6.14;65.51;101813.34;5103727;28;19916;-63
2022/12/27 12:04:12;;;;;;;;;;;;;;;6.20;65.15;101823.63;5106378;28;19912;-62
2022/12/27 12:06:47;;;;;;;;;;;;;;;6.32;65.47;101821.66;5105161;28;19916;-63
2022/12/27 12:09:35;;;;;;;;;;;;;;;6.22;65.10;101839.28;5101557;28;19916;-64
2022/12/27 12:12:00;;;;;;;;;;;;;;;6.21;65.38;101819.28;5107201;28;19920;-64
2022/12/27 12:14:41;;;;;;;;;;;;;;;6.21;65.46;101835.81;5095291;28;19926;-64
2022/12/27 12:17:25;;;;;;;;;;;;;;;6.09;65.74;101842.19;5091324;28;20053;-65
2022/12/27 12:20:22;;;;;;;;;;;;;;;6.07;65.97;101843.97;5094613;28;19924;-65
2022/12/27 12:22:54;;;;;;;;;;;;;;;6.07;66.06;101849.19;5040897;27;20631;-64
2022/12/27 12:25:19;;;;;;;;;;;;;;;6.10;65.53;101848.25;5102183;27;20011;-65
2022/12/27 12:28:04;;;;;;;;;;;;;;;6.15;65.86;101859.47;5097144;28;19983;-65
2022/12/27 12:30:46;;;;;;;;;;;;;;;6.16;65.58;101847.25;5080076;28;20294;-64
2022/12/27 12:33:14;;;;;;;;;;;;;;;6.20;65.09;101841.94;5101085;27;19924;-63
2022/12/27 12:35:49;;;;;;;;;;;;;;;6.21;65.31;101861.94;5104077;27;19923;-65
2022/12/27 12:38:19;;;;;;;;;;;;;;;6.17;65.19;101855.09;5105718;27;19980;-62
2022/12/27 12:41:02;;;;;;;;;;;;;;;6.18;65.24;101864.66;5087078;28;19931;-65
2022/12/27 12:43:40;;;;;;;;;;;;;;;6.21;65.12;101864.56;5099437;28;20321;-64
2022/12/27 12:46:20;;;;;;;;;;;;;;;6.25;65.05;101857.53;5102506;28;20661;-62
2022/12/27 12:48:45;;;;;;;;;;;;;;;6.17;65.43;101869.88;5102005;28;19916;-66
2022/12/27 12:51:16;;;;;;;;;;;;;;;6.20;65.06;101856.75;5106023;28;20445;-63
2022/12/27 12:53:52;;;;;;;;;;;;;;;6.17;64.87;101880.34;5099296;28;19920;-65
2022/12/27 12:56:40;;;;;;;;;;;;;;;6.10;65.28;101867.44;5082388;28;19916;-65
2022/12/27 12:59:21;;;;;;;;;;;;;;;6.14;65.45;101862.09;5087703;28;19920;-64
2022/12/27 13:01:51;;;;;;;;;;;;;;;6.18;65.11;101867.25;5101345;28;19965;-61
2022/12/27 13:04:19;;;;;;;;;;;;;;;6.21;64.66;101874.16;5098430;28;19919;-62
2022/12/27 13:06:48;;;;;;;;;;;;;;;6.15;65.13;101871.66;5101214;28;19928;-64
2022/12/27 13:09:22;;;;;;;;;;;;;;;6.17;65.01;101875.13;5096927;28;19920;-60
2022/12/27 13:11:54;;;;;;;;;;;;;;;6.09;65.13;101870.94;5099148;28;20396;-61
2022/12/27 13:14:35;;;;;;;;;;;;;;;6.05;65.34;101876.25;5105344;28;19927;-62
2022/12/27 13:17:17;;;;;;;;;;;;;;;5.92;65.38;101893.88;5086874;28;19930;-64
2022/12/27 13:20:01;;;;;;;;;;;;;;;5.78;65.47;101881.06;5105467;28;19934;-64
2022/12/27 13:22:45;;;;;;;;;;;;;;;5.90;65.51;101898.28;5088107;28;19924;-64
2022/12/27 13:25:39;;;;;;;;;;;;;;;5.88;65.55;101900.06;5099019;28;20382;-66
2022/12/27 13:28:07;;;;;;;;;;;;;;;5.87;65.64;101888.75;5025473;28;19917;-64
2022/12/27 13:30:37;;;;;;;;;;;;;;;5.90;65.33;101895.66;5078896;28;19960;-65
2022/12/27 13:33:15;;;;;;;;;;;;;;;5.98;65.36;101898.13;5104607;28;20600;-64
2022/12/27 13:36:02;;;;;;;;;;;;;;;5.98;65.40;101906.81;5101733;28;19924;-64
2022/12/27 13:38:49;;;;;;;;;;;;;;;5.92;65.79;101920.00;5103751;27;21232;-64
2022/12/27 13:41:14;;;;;;;;;;;;;;;5.95;65.73;101917.34;5105024;28;20054;-63
2022/12/27 13:43:49;;;;;;;;;;;;;;;5.92;65.45;101938.31;5100269;28;19969;-64
2022/12/27 13:46:33;;;;;;;;;;;;;;;5.97;65.04;101910.34;5098019;28;19980;-62
2022/12/27 13:49:20;;;;;;;;;;;;;;;5.95;65.18;101904.28;5099171;28;20014;-64
2022/12/27 13:51:45;;;;;;;;;;;;;;;5.94;65.37;101911.25;5099527;28;19919;-64
2022/12/27 13:54:16;;;;;;;;;;;;;;;5.98;65.56;101916.41;5102642;28;19947;-62
2022/12/27 13:57:04;;;;;;;;;;;;;;;6.02;64.90;101905.91;5079572;28;19925;-64
2022/12/27 13:59:48;;;;;;;;;;;;;;;6.02;64.49;101918.13;5105319;28;19969;-65
2022/12/27 14:02:13;;;;;;;;;;;;;;;6.03;64.68;101925.91;5085949;28;19920;-65
2022/12/27 14:04:41;;;;;;;;;;;;;;;6.00;64.71;101927.72;5107730;28;19968;-65
2022/12/27 14:07:24;;;;;;;;;;;;;;;5.97;64.93;101931.25;5081017;28;19969;-65
2022/12/27 14:09:53;;;;;;;;;;;;;;;6.02;64.44;101929.41;5067869;28;19919;-64
2022/12/27 14:12:44;;;;;;;;;;;;;;;5.95;63.76;101922.56;5095544;28;19927;-64
2022/12/27 14:15:19;;;;;;;;;;;;;;;5.90;64.19;101919.19;5104240;28;19915;-63
2022/12/27 14:17:47;;;;;;;;;;;;;;;5.83;64.09;101930.63;5102858;28;19961;-66
2022/12/27 14:20:12;;;;;;;;;;;;;;;5.78;64.38;101923.75;5095898;28;20466;-66
2022/12/27 14:23:02;;;;;;;;;;;;;;;5.75;64.46;101931.63;5098844;28;19965;-64
2022/12/27 14:25:52;;;;;;;;;;;;;;;5.63;65.25;101926.66;5092936;28;19924;-60
2022/12/27 14:28:34;;;;;;;;;;;;;;;5.62;65.44;101938.81;5098626;28;20014;-65
2022/12/27 14:31:18;;;;;;;;;;;;;;;5.57;66.01;101939.78;5084452;28;19913;-65
2022/12/27 14:33:59;;;;;;;;;;;;;;;5.55;65.95;101938.97;5103220;28;19924;-64
2022/12/27 14:36:43;;;;;;;;;;;;;;;5.57;66.04;101942.41;5102923;28;19912;-66
2022/12/27 14:39:27;;;;;;;;;;;;;;;5.61;66.23;101941.47;5098583;28;19924;-65
2022/12/27 14:42:11;;;;;;;;;;;;;;;5.60;65.75;101937.13;5104826;28;19912;-65